createdAt,value
2018-02-11T00:00:08.339Z,1001.80
2018-02-11T00:01:08.309Z,1001.85
2018-02-11T00:02:18.034Z,1001.80
2018-02-11T00:04:02.038Z,1001.82
2018-02-11T00:05:01.835Z,1001.87
2018-02-11T00:06:01.920Z,1001.81
2018-02-11T00:07:01.658Z,1001.78
2018-02-11T00:08:01.644Z,1001.81
2018-02-11T00:09:01.683Z,1001.79
2018-02-11T00:10:01.674Z,1001.77
2018-02-11T00:11:01.621Z,1001.79
2018-02-11T00:12:01.609Z,1001.78
2018-02-11T00:13:01.599Z,1001.76
2018-02-11T00:14:01.591Z,1001.75
2018-02-11T00:15:01.595Z,1001.74
2018-02-11T00:16:01.575Z,1001.74
2018-02-11T00:17:01.591Z,1001.70
2018-02-11T00:18:01.559Z,1001.67
2018-02-11T00:19:01.547Z,1001.66
2018-02-11T00:20:10.851Z,1001.62
2018-02-11T00:21:55.272Z,1001.59
2018-02-11T00:22:55.076Z,1001.54
2018-02-11T00:23:54.997Z,1001.54
2018-02-11T00:24:55.284Z,1001.54
2018-02-11T00:25:54.907Z,1001.55
2018-02-11T00:26:54.872Z,1001.52
2018-02-11T00:27:54.865Z,1001.50
2018-02-11T00:28:54.854Z,1001.47
2018-02-11T00:29:54.860Z,1001.45
2018-02-11T00:30:54.893Z,1001.44
2018-02-11T00:31:54.835Z,1001.41
2018-02-11T00:32:54.850Z,1001.39
2018-02-11T00:33:54.815Z,1001.44
2018-02-11T00:34:54.808Z,1001.39
2018-02-11T00:35:54.795Z,1001.40
2018-02-11T00:36:54.785Z,1001.40
2018-02-11T00:37:54.776Z,1001.37
2018-02-11T00:38:54.778Z,1001.34
2018-02-11T00:39:54.774Z,1001.37
2018-02-11T00:40:54.863Z,1001.33
2018-02-11T00:41:54.750Z,1001.31
2018-02-11T00:42:54.830Z,1001.27
2018-02-11T00:43:54.730Z,1001.25
2018-02-11T00:44:54.716Z,1001.24
2018-02-11T00:45:54.707Z,1001.22
2018-02-11T00:46:54.696Z,1001.21
2018-02-11T00:47:54.692Z,1001.23
2018-02-11T00:48:54.695Z,1001.27
2018-02-11T00:49:54.670Z,1001.24
2018-02-11T00:50:54.669Z,1001.23
2018-02-11T00:51:54.656Z,1001.24
2018-02-11T00:52:54.670Z,1001.26
2018-02-11T00:53:54.661Z,1001.29
2018-02-11T00:54:54.624Z,1001.25
2018-02-11T00:55:54.620Z,1001.26
2018-02-11T00:56:54.610Z,1001.23
2018-02-11T00:57:54.599Z,1001.23
2018-02-11T00:58:54.599Z,1001.24
2018-02-11T00:59:54.596Z,1001.21
2018-02-11T01:00:54.572Z,1001.19
2018-02-11T01:01:54.561Z,1001.15
2018-02-11T01:02:54.562Z,1001.14
2018-02-11T01:03:54.549Z,1001.12
2018-02-11T01:04:54.582Z,1001.09
2018-02-11T01:05:54.554Z,1001.08
2018-02-11T01:06:54.525Z,1001.08
2018-02-11T01:07:54.516Z,1001.02
2018-02-11T01:08:54.538Z,1001.01
2018-02-11T01:09:54.493Z,1001.04
2018-02-11T01:10:54.486Z,1000.97
2018-02-11T01:11:54.514Z,1000.99
2018-02-11T01:12:54.466Z,1000.92
2018-02-11T01:13:54.458Z,1000.94
2018-02-11T01:16:16.066Z,1000.90
2018-02-11T01:17:15.552Z,1000.88
2018-02-11T01:18:15.741Z,1000.86
2018-02-11T01:19:16.140Z,1000.82
2018-02-11T01:20:15.473Z,1000.82
2018-02-11T01:21:15.425Z,1000.84
2018-02-11T01:22:15.418Z,1000.77
2018-02-11T01:23:15.413Z,1000.70
2018-02-11T01:24:15.400Z,1000.72
2018-02-11T01:25:15.405Z,1000.72
2018-02-11T01:26:15.381Z,1000.66
2018-02-11T01:27:15.375Z,1000.63
2018-02-11T01:28:15.367Z,1000.59
2018-02-11T01:29:15.353Z,1000.56
2018-02-11T01:30:15.348Z,1000.53
2018-02-11T01:31:15.356Z,1000.52
2018-02-11T01:32:15.332Z,1000.52
2018-02-11T01:33:15.319Z,1000.53
2018-02-11T01:34:15.314Z,1000.49
2018-02-11T01:35:15.321Z,1000.53
2018-02-11T01:36:15.319Z,1000.49
2018-02-11T01:37:15.305Z,1000.47
2018-02-11T01:38:15.278Z,1000.50
2018-02-11T01:39:15.277Z,1000.43
2018-02-11T01:40:15.259Z,1000.49
2018-02-11T01:41:15.248Z,1000.47
2018-02-11T01:42:15.237Z,1000.47
2018-02-11T01:43:15.230Z,1000.46
2018-02-11T01:44:15.219Z,1000.43
2018-02-11T01:45:15.216Z,1000.43
2018-02-11T01:46:15.206Z,1000.40
2018-02-11T01:47:15.193Z,1000.39
2018-02-11T01:48:15.181Z,1000.41
2018-02-11T01:49:15.172Z,1000.36
2018-02-11T01:50:15.168Z,1000.32
2018-02-11T01:51:15.157Z,1000.30
2018-02-11T01:52:15.157Z,1000.25
2018-02-11T01:53:15.187Z,1000.28
2018-02-11T01:54:15.136Z,1000.22
2018-02-11T01:55:15.129Z,1000.19
2018-02-11T01:56:15.111Z,1000.12
2018-02-11T01:57:15.099Z,1000.14
2018-02-11T01:58:15.101Z,1000.11
2018-02-11T01:59:15.086Z,1000.08
2018-02-11T02:00:15.078Z,1000.01
2018-02-11T02:01:15.065Z,1000.03
2018-02-11T02:02:15.055Z,1000.00
2018-02-11T02:03:15.044Z,999.97
2018-02-11T02:04:15.034Z,999.94
2018-02-11T02:05:15.029Z,999.92
2018-02-11T02:06:15.039Z,999.92
2018-02-11T02:07:15.016Z,999.88
2018-02-11T02:08:14.998Z,999.83
2018-02-11T02:09:14.992Z,999.85
2018-02-11T02:10:14.984Z,999.85
2018-02-11T02:11:14.986Z,999.81
2018-02-11T02:12:14.965Z,999.81
2018-02-11T02:13:14.957Z,999.82
2018-02-11T02:14:14.951Z,999.87
2018-02-11T02:15:14.977Z,999.82
2018-02-11T02:16:14.928Z,999.83
2018-02-11T02:17:14.922Z,999.82
2018-02-11T02:18:14.916Z,999.79
2018-02-11T02:19:14.946Z,999.72
2018-02-11T02:20:14.890Z,999.70
2018-02-11T02:21:14.883Z,999.69
2018-02-11T02:22:14.871Z,999.70
2018-02-11T02:23:14.866Z,999.65
2018-02-11T02:24:14.854Z,999.67
2018-02-11T02:25:14.877Z,999.64
2018-02-11T02:26:14.842Z,999.61
2018-02-11T02:27:14.847Z,999.62
2018-02-11T02:28:24.560Z,999.60
2018-02-11T02:30:08.540Z,999.54
2018-02-11T02:31:08.500Z,999.55
2018-02-11T02:32:08.371Z,999.53
2018-02-11T02:33:08.615Z,999.50
2018-02-11T02:34:08.178Z,999.48
2018-02-11T02:35:08.204Z,999.52
2018-02-11T02:36:08.165Z,999.49
2018-02-11T02:37:08.157Z,999.44
2018-02-11T02:38:08.141Z,999.43
2018-02-11T02:39:08.135Z,999.42
2018-02-11T02:40:08.125Z,999.39
2018-02-11T02:41:08.113Z,999.38
2018-02-11T02:42:08.106Z,999.38
2018-02-11T02:43:08.104Z,999.36
2018-02-11T02:44:08.094Z,999.30
2018-02-11T02:45:08.085Z,999.30
2018-02-11T02:46:08.070Z,999.29
2018-02-11T02:47:08.065Z,999.27
2018-02-11T02:48:08.053Z,999.27
2018-02-11T02:49:08.204Z,999.25
2018-02-11T02:50:08.092Z,999.29
2018-02-11T02:51:08.032Z,999.24
2018-02-11T02:52:08.116Z,999.27
2018-02-11T02:53:08.092Z,999.31
2018-02-11T02:54:08.088Z,999.26
2018-02-11T02:55:08.114Z,999.20
2018-02-11T02:56:08.149Z,999.17
2018-02-11T02:57:07.972Z,999.15
2018-02-11T02:58:07.967Z,999.12
2018-02-11T02:59:07.950Z,999.05
2018-02-11T03:00:07.953Z,999.06
2018-02-11T03:01:07.942Z,999.04
2018-02-11T03:02:07.938Z,999.04
2018-02-11T03:03:07.927Z,999.04
2018-02-11T03:04:07.943Z,999.03
2018-02-11T03:23:59.771Z,998.59
2018-02-11T03:24:59.744Z,998.58
2018-02-11T03:25:59.829Z,998.53
2018-02-11T03:26:59.692Z,998.55
2018-02-11T03:27:59.419Z,998.55
2018-02-11T03:28:59.259Z,998.51
2018-02-11T03:29:59.245Z,998.49
2018-02-11T03:30:59.289Z,998.45
2018-02-11T03:31:59.224Z,998.44
2018-02-11T03:32:59.214Z,998.41
2018-02-11T03:33:59.198Z,998.40
2018-02-11T03:34:59.194Z,998.40
2018-02-11T03:35:59.175Z,998.34
2018-02-11T03:36:59.185Z,998.33
2018-02-11T03:37:59.154Z,998.30
2018-02-11T03:38:59.142Z,998.22
2018-02-11T03:39:59.137Z,998.28
2018-02-11T03:40:59.130Z,998.26
2018-02-11T03:41:59.115Z,998.22
2018-02-11T03:42:59.104Z,998.22
2018-02-11T03:43:59.098Z,998.15
2018-02-11T03:44:59.092Z,998.16
2018-02-11T03:45:59.076Z,998.10
2018-02-11T03:46:59.065Z,998.12
2018-02-11T03:47:59.061Z,998.12
2018-02-11T03:48:59.053Z,998.11
2018-02-11T03:49:59.039Z,998.14
2018-02-11T03:50:59.038Z,998.06
2018-02-11T03:51:59.022Z,998.03
2018-02-11T03:54:29.214Z,997.98
2018-02-11T03:55:20.465Z,997.99
2018-02-11T03:56:20.142Z,997.99
2018-02-11T03:57:20.969Z,997.98
2018-02-11T03:58:20.030Z,997.93
2018-02-11T03:59:20.015Z,997.94
2018-02-11T04:00:20.009Z,997.90
2018-02-11T04:01:19.997Z,997.86
2018-02-11T04:02:20.000Z,997.85
2018-02-11T04:03:19.975Z,997.86
2018-02-11T04:04:19.973Z,997.84
2018-02-11T04:05:19.960Z,997.84
2018-02-11T04:06:19.987Z,997.79
2018-02-11T04:07:19.939Z,997.80
2018-02-11T04:08:19.940Z,997.82
2018-02-11T04:09:19.922Z,997.81
2018-02-11T04:10:19.912Z,997.77
2018-02-11T04:11:19.909Z,997.71
2018-02-11T04:12:19.936Z,997.71
2018-02-11T04:13:19.894Z,997.66
2018-02-11T04:14:19.880Z,997.67
2018-02-11T04:15:19.868Z,997.65
2018-02-11T04:16:19.887Z,997.59
2018-02-11T04:17:19.852Z,997.61
2018-02-11T04:18:19.841Z,997.59
2018-02-11T04:19:19.832Z,997.60
2018-02-11T04:20:19.828Z,997.53
2018-02-11T04:21:19.886Z,997.52
2018-02-11T04:22:19.806Z,997.51
2018-02-11T04:23:19.793Z,997.46
2018-02-11T04:24:19.787Z,997.47
2018-02-11T04:25:19.788Z,997.44
2018-02-11T04:26:19.767Z,997.46
2018-02-11T04:27:19.780Z,997.44
2018-02-11T04:28:19.749Z,997.45
2018-02-11T04:29:19.740Z,997.41
2018-02-11T04:30:19.733Z,997.45
2018-02-11T04:31:19.723Z,997.44
2018-02-11T04:32:19.715Z,997.40
2018-02-11T04:33:19.705Z,997.41
2018-02-11T04:34:19.700Z,997.42
2018-02-11T04:35:19.686Z,997.40
2018-02-11T04:36:19.678Z,997.43
2018-02-11T04:37:19.666Z,997.42
2018-02-11T04:38:19.661Z,997.39
2018-02-11T04:39:19.647Z,997.41
2018-02-11T04:40:19.641Z,997.37
2018-02-11T04:41:19.634Z,997.34
2018-02-11T04:42:19.622Z,997.28
2018-02-11T04:43:19.620Z,997.30
2018-02-11T04:44:19.607Z,997.27
2018-02-11T04:45:19.604Z,997.18
2018-02-11T04:46:19.634Z,997.16
2018-02-11T04:47:19.582Z,997.20
2018-02-11T04:48:19.681Z,997.15
2018-02-11T04:49:19.666Z,997.15
2018-02-11T04:50:19.558Z,997.11
2018-02-11T04:51:19.544Z,997.13
2018-02-11T04:52:19.537Z,997.14
2018-02-11T04:53:29.096Z,997.11
2018-02-11T04:55:13.833Z,997.07
2018-02-11T04:56:13.843Z,996.97
2018-02-11T04:57:13.801Z,997.00
2018-02-11T04:58:12.956Z,996.94
2018-02-11T04:59:12.869Z,996.93
2018-02-11T05:00:12.862Z,996.90
2018-02-11T05:01:12.852Z,996.91
2018-02-11T05:02:12.846Z,996.92
2018-02-11T05:03:12.855Z,996.87
2018-02-11T05:04:12.822Z,996.85
2018-02-11T05:05:12.814Z,996.77
2018-02-11T05:06:12.836Z,996.81
2018-02-11T05:07:12.799Z,996.80
2018-02-11T05:08:13.040Z,996.76
2018-02-11T05:09:12.784Z,996.75
2018-02-11T05:10:12.779Z,996.70
2018-02-11T05:11:12.764Z,996.68
2018-02-11T05:12:12.755Z,996.66
2018-02-11T05:13:12.832Z,996.65
2018-02-11T05:14:12.737Z,996.60
2018-02-11T05:15:12.723Z,996.60
2018-02-11T05:16:12.721Z,996.61
2018-02-11T05:17:12.714Z,996.60
2018-02-11T05:18:12.695Z,996.69
2018-02-11T05:19:12.692Z,996.63
2018-02-11T05:20:12.676Z,996.56
2018-02-11T05:21:12.725Z,996.66
2018-02-11T05:22:12.659Z,996.62
2018-02-11T05:23:12.742Z,996.59
2018-02-11T05:24:12.640Z,996.56
2018-02-11T05:25:12.644Z,996.51
2018-02-11T05:26:12.622Z,996.51
2018-02-11T05:27:12.621Z,996.52
2018-02-11T05:28:12.606Z,996.53
2018-02-11T05:29:12.601Z,996.53
2018-02-11T05:30:12.583Z,996.50
2018-02-11T05:31:12.580Z,996.46
2018-02-11T05:32:12.570Z,996.46
2018-02-11T05:33:12.557Z,996.45
2018-02-11T05:34:12.550Z,996.42
2018-02-11T05:35:12.544Z,996.43
2018-02-11T05:36:12.536Z,996.42
2018-02-11T05:37:12.528Z,996.41
2018-02-11T05:38:12.540Z,996.41
2018-02-11T05:39:12.508Z,996.41
2018-02-11T05:40:12.496Z,996.35
2018-02-11T05:41:12.485Z,996.39
2018-02-11T05:42:12.486Z,996.38
2018-02-11T05:43:12.467Z,996.30
2018-02-11T05:44:12.513Z,996.32
2018-02-11T05:45:12.500Z,996.33
2018-02-11T05:46:12.443Z,996.29
2018-02-11T05:47:12.432Z,996.39
2018-02-11T05:48:12.430Z,996.26
2018-02-11T05:49:12.415Z,996.25
2018-02-11T05:50:12.402Z,996.19
2018-02-11T05:51:12.397Z,996.16
2018-02-11T05:52:12.385Z,996.12
2018-02-11T05:53:12.384Z,996.10
2018-02-11T05:54:12.366Z,996.15
2018-02-11T05:55:12.363Z,996.11
2018-02-11T05:56:12.349Z,996.07
2018-02-11T05:57:12.341Z,996.03
2018-02-11T05:58:12.329Z,996.04
2018-02-11T05:59:12.322Z,996.05
2018-02-11T06:00:12.312Z,996.01
2018-02-11T06:01:12.312Z,996.02
2018-02-11T06:02:12.297Z,995.98
2018-02-11T06:03:12.293Z,995.99
2018-02-11T06:04:12.278Z,995.92
2018-02-11T06:05:12.265Z,995.89
2018-02-11T06:06:22.336Z,995.87
2018-02-11T06:08:06.424Z,995.92
2018-02-11T06:09:05.885Z,995.91
2018-02-11T06:10:06.041Z,995.93
2018-02-11T06:11:05.667Z,995.88
2018-02-11T06:12:05.604Z,995.90
2018-02-11T06:13:05.599Z,995.88
2018-02-11T06:14:05.590Z,995.84
2018-02-11T06:15:05.580Z,995.87
2018-02-11T06:16:05.566Z,995.80
2018-02-11T06:17:05.557Z,995.77
2018-02-11T06:18:05.577Z,995.78
2018-02-11T06:19:05.543Z,995.74
2018-02-11T06:20:05.539Z,995.76
2018-02-11T06:21:05.548Z,995.71
2018-02-11T06:22:05.513Z,995.65
2018-02-11T06:23:05.503Z,995.69
2018-02-11T06:24:05.499Z,995.58
2018-02-11T06:25:05.487Z,995.63
2018-02-11T06:26:05.508Z,995.62
2018-02-11T06:27:05.481Z,995.55
2018-02-11T06:28:05.461Z,995.56
2018-02-11T06:29:05.468Z,995.52
2018-02-11T06:30:05.458Z,995.56
2018-02-11T06:31:05.439Z,995.65
2018-02-11T06:32:05.424Z,995.64
2018-02-11T06:33:05.432Z,995.49
2018-02-11T06:34:05.407Z,995.56
2018-02-11T06:35:05.400Z,995.54
2018-02-11T06:36:05.386Z,995.54
2018-02-11T06:37:05.378Z,995.52
2018-02-11T06:38:05.369Z,995.48
2018-02-11T06:39:05.358Z,995.49
2018-02-11T06:40:05.361Z,995.49
2018-02-11T06:41:05.346Z,995.49
2018-02-11T06:42:05.562Z,995.41
2018-02-11T06:43:05.325Z,995.50
2018-02-11T06:44:05.316Z,995.49
2018-02-11T06:45:05.309Z,995.40
2018-02-11T06:46:05.304Z,995.42
2018-02-11T06:47:05.292Z,995.44
2018-02-11T06:48:05.283Z,995.42
2018-02-11T06:49:05.274Z,995.46
2018-02-11T06:50:05.263Z,995.46
2018-02-11T06:51:05.255Z,995.40
2018-02-11T06:52:05.245Z,995.44
2018-02-11T06:53:05.236Z,995.44
2018-02-11T06:54:05.225Z,995.30
2018-02-11T06:55:05.218Z,995.31
2018-02-11T06:56:05.208Z,995.29
2018-02-11T06:57:05.200Z,995.29
2018-02-11T06:58:05.315Z,995.31
2018-02-11T06:59:05.179Z,995.25
2018-02-11T07:00:05.201Z,995.23
2018-02-11T07:01:05.162Z,995.23
2018-02-11T07:02:05.155Z,995.21
2018-02-11T07:03:05.147Z,995.23
2018-02-11T07:04:05.187Z,995.25
2018-02-11T07:05:05.126Z,995.26
2018-02-11T07:06:05.119Z,995.25
2018-02-11T07:07:05.113Z,995.21
2018-02-11T07:08:05.128Z,995.18
2018-02-11T07:09:05.093Z,995.19
2018-02-11T07:10:05.095Z,995.17
2018-02-11T07:11:05.074Z,995.08
2018-02-11T07:12:05.081Z,995.02
2018-02-11T07:13:05.059Z,994.99
2018-02-11T07:14:05.056Z,994.98
2018-02-11T07:15:05.041Z,994.98
2018-02-11T07:16:05.034Z,995.00
2018-02-11T07:17:05.017Z,995.02
2018-02-11T07:18:05.014Z,994.97
2018-02-11T07:19:14.032Z,995.08
2018-02-11T07:20:58.761Z,995.03
2018-02-11T07:21:58.368Z,995.10
2018-02-11T07:22:58.424Z,995.05
2018-02-11T07:23:58.719Z,995.08
2018-02-11T07:24:58.340Z,995.10
2018-02-11T07:25:58.365Z,995.01
2018-02-11T07:26:58.323Z,995.07
2018-02-11T07:27:58.313Z,995.07
2018-02-11T07:28:58.304Z,995.07
2018-02-11T07:29:58.298Z,994.95
2018-02-11T07:30:58.286Z,994.97
2018-02-11T07:31:58.276Z,995.01
2018-02-11T07:32:58.269Z,994.95
2018-02-11T07:33:58.264Z,994.90
2018-02-11T07:34:58.251Z,994.87
2018-02-11T07:35:58.240Z,994.82
2018-02-11T07:36:58.231Z,994.84
2018-02-11T07:37:58.223Z,994.87
2018-02-11T07:38:58.218Z,994.83
2018-02-11T07:39:58.206Z,994.87
2018-02-11T07:40:58.194Z,994.97
2018-02-11T07:41:58.187Z,994.86
2018-02-11T07:43:07.215Z,994.76
2018-02-11T07:45:01.967Z,994.79
2018-02-11T07:45:52.612Z,994.75
2018-02-11T07:46:52.603Z,994.80
2018-02-11T07:47:52.814Z,994.64
2018-02-11T07:48:52.538Z,994.68
2018-02-11T07:49:52.532Z,994.65
2018-02-11T07:50:52.523Z,994.63
2018-02-11T07:51:52.530Z,994.60
2018-02-11T07:52:52.513Z,994.56
2018-02-11T07:53:52.516Z,994.55
2018-02-11T07:54:52.521Z,994.54
2018-02-11T07:55:52.527Z,994.58
2018-02-11T07:56:52.471Z,994.59
2018-02-11T07:57:52.460Z,994.59
2018-02-11T07:58:52.454Z,994.58
2018-02-11T07:59:52.442Z,994.50
2018-02-11T08:00:52.437Z,994.51
2018-02-11T08:01:52.469Z,994.55
2018-02-11T08:02:52.414Z,994.54
2018-02-11T08:03:52.402Z,994.49
2018-02-11T08:04:52.396Z,994.44
2018-02-11T08:05:52.390Z,994.49
2018-02-11T08:06:52.383Z,994.55
2018-02-11T08:07:52.371Z,994.45
2018-02-11T08:08:52.376Z,994.44
2018-02-11T08:09:52.356Z,994.47
2018-02-11T08:10:52.349Z,994.64
2018-02-11T08:11:52.352Z,994.50
2018-02-11T08:12:52.321Z,994.42
2018-02-11T08:13:52.314Z,994.48
2018-02-11T08:14:52.309Z,994.48
2018-02-11T08:15:52.292Z,994.55
2018-02-11T08:16:52.297Z,994.58
2018-02-11T08:17:52.289Z,994.32
2018-02-11T08:18:52.264Z,994.60
2018-02-11T08:19:52.260Z,994.54
2018-02-11T08:20:52.254Z,994.55
2018-02-11T08:21:52.240Z,994.64
2018-02-11T08:22:52.253Z,994.65
2018-02-11T08:23:52.219Z,994.55
2018-02-11T08:24:52.212Z,994.61
2018-02-11T08:25:52.198Z,994.56
2018-02-11T08:26:52.199Z,994.59
2018-02-11T08:27:52.185Z,994.61
2018-02-11T08:28:52.172Z,994.54
2018-02-11T08:29:52.162Z,994.70
2018-02-11T08:30:52.171Z,994.65
2018-02-11T08:32:01.159Z,994.69
2018-02-11T08:33:45.904Z,994.71
2018-02-11T08:34:46.973Z,994.62
2018-02-11T08:35:45.626Z,994.69
2018-02-11T08:36:45.642Z,994.63
2018-02-11T08:37:45.794Z,994.67
2018-02-11T08:38:45.596Z,994.60
2018-02-11T08:39:45.482Z,994.50
2018-02-11T08:40:45.452Z,994.64
2018-02-11T08:41:45.451Z,994.63
2018-02-11T08:42:45.438Z,994.50
2018-02-11T08:43:45.426Z,994.65
2018-02-11T08:44:45.426Z,994.64
2018-02-11T08:45:45.432Z,994.73
2018-02-11T08:46:45.495Z,994.45
2018-02-11T08:47:45.450Z,994.68
2018-02-11T08:48:45.407Z,994.65
2018-02-11T08:49:45.389Z,994.72
2018-02-11T08:50:45.407Z,994.67
2018-02-11T08:51:45.357Z,994.70
2018-02-11T08:52:45.349Z,994.65
2018-02-11T08:53:45.342Z,994.51
2018-02-11T08:54:45.418Z,994.62
2018-02-11T08:55:45.320Z,994.51
2018-02-11T08:56:45.310Z,994.59
2018-02-11T08:57:45.385Z,994.66
2018-02-11T08:58:45.297Z,994.50
2018-02-11T08:59:45.286Z,994.53
2018-02-11T09:00:45.306Z,994.51
2018-02-11T09:01:45.289Z,994.44
2018-02-11T09:02:45.345Z,994.40
2018-02-11T09:03:45.322Z,994.41
2018-02-11T09:04:45.294Z,994.40
2018-02-11T09:05:45.249Z,994.37
2018-02-11T09:06:45.386Z,994.40
2018-02-11T09:07:45.325Z,994.31
2018-02-11T09:08:45.275Z,994.35
2018-02-11T09:09:45.187Z,994.35
2018-02-11T09:10:45.178Z,994.43
2018-02-11T09:11:45.168Z,994.39
2018-02-11T09:12:45.162Z,994.41
2018-02-11T09:13:45.223Z,994.39
2018-02-11T09:14:45.201Z,994.42
2018-02-11T09:15:45.137Z,994.31
2018-02-11T09:16:45.190Z,994.43
2018-02-11T09:17:45.113Z,994.40
2018-02-11T09:18:54.152Z,994.43
2018-02-11T09:20:39.891Z,994.38
2018-02-11T09:23:35.758Z,994.35
2018-02-11T09:24:35.200Z,994.21
2018-02-11T09:25:33.148Z,994.25
2018-02-11T09:26:33.097Z,994.23
2018-02-11T09:27:32.923Z,994.35
2018-02-11T09:28:32.834Z,994.33
2018-02-11T09:29:32.830Z,994.28
2018-02-11T09:30:32.933Z,994.37
2018-02-11T09:31:32.811Z,994.16
2018-02-11T09:32:32.830Z,994.37
2018-02-11T09:33:32.840Z,994.33
2018-02-11T09:34:32.792Z,994.38
2018-02-11T09:35:32.844Z,994.27
2018-02-11T09:36:45.103Z,994.36
2018-02-11T09:38:29.937Z,994.31
2018-02-11T09:39:29.480Z,994.28
2018-02-11T09:40:29.255Z,994.34
2018-02-11T09:41:29.255Z,994.38
2018-02-11T09:42:38.891Z,994.28
2018-02-11T09:44:31.745Z,994.32
2018-02-11T09:45:22.872Z,994.36
2018-02-11T09:46:22.689Z,994.23
2018-02-11T09:47:22.567Z,994.24
2018-02-11T09:48:25.295Z,994.32
2018-02-11T09:49:22.471Z,994.33
2018-02-11T09:50:22.326Z,994.28
2018-02-11T09:51:22.319Z,994.23
2018-02-11T09:52:22.312Z,994.36
2018-02-11T09:53:22.306Z,994.30
2018-02-11T09:54:22.294Z,994.30
2018-02-11T09:55:22.289Z,994.31
2018-02-11T09:56:22.358Z,994.23
2018-02-11T09:57:22.269Z,994.25
2018-02-11T09:58:22.256Z,994.20
2018-02-11T09:59:22.261Z,994.32
2018-02-11T10:00:22.247Z,994.23
2018-02-11T10:01:22.249Z,994.26
2018-02-11T10:02:22.227Z,994.21
2018-02-11T10:03:22.214Z,994.20
2018-02-11T10:04:22.252Z,994.24
2018-02-11T10:05:22.196Z,994.24
2018-02-11T10:08:24.968Z,994.19
2018-02-11T10:09:15.752Z,994.13
2018-02-11T10:10:15.579Z,994.15
2018-02-11T10:11:15.644Z,994.10
2018-02-11T10:12:15.595Z,994.12
2018-02-11T10:13:15.606Z,994.23
2018-02-11T10:14:15.508Z,994.14
2018-02-11T10:15:15.498Z,994.14
2018-02-11T10:16:15.498Z,994.12
2018-02-11T10:17:15.481Z,994.10
2018-02-11T10:18:15.489Z,994.09
2018-02-11T10:19:15.465Z,993.99
2018-02-11T10:20:15.459Z,994.00
2018-02-11T10:21:15.446Z,993.95
2018-02-11T10:22:15.438Z,994.02
2018-02-11T10:23:15.431Z,994.01
2018-02-11T10:24:15.449Z,994.00
2018-02-11T10:25:15.412Z,994.02
2018-02-11T10:26:15.408Z,993.93
2018-02-11T10:27:15.394Z,993.98
2018-02-11T10:28:15.384Z,993.98
2018-02-11T10:29:15.377Z,993.90
2018-02-11T10:30:15.383Z,993.99
2018-02-11T10:31:15.368Z,993.95
2018-02-11T10:32:15.354Z,994.00
2018-02-11T10:33:15.343Z,994.05
2018-02-11T10:34:15.337Z,993.97
2018-02-11T10:35:15.329Z,994.00
2018-02-11T10:36:15.320Z,994.03
2018-02-11T10:37:15.314Z,994.03
2018-02-11T10:38:15.316Z,994.07
2018-02-11T10:39:15.293Z,993.96
2018-02-11T10:40:15.289Z,993.97
2018-02-11T10:41:15.276Z,994.04
2018-02-11T10:42:15.269Z,994.09
2018-02-11T10:43:15.260Z,994.03
2018-02-11T10:44:15.254Z,994.07
2018-02-11T10:45:15.280Z,994.05
2018-02-11T10:46:15.235Z,994.07
2018-02-11T10:47:15.225Z,994.00
2018-02-11T10:48:15.239Z,993.97
2018-02-11T10:49:24.912Z,994.05
2018-02-11T10:51:09.476Z,994.10
2018-02-11T10:52:08.660Z,994.06
2018-02-11T10:53:08.619Z,994.02
2018-02-11T10:54:08.562Z,994.04
2018-02-11T10:55:08.608Z,994.07
2018-02-11T10:56:08.649Z,994.09
2018-02-11T10:57:17.304Z,994.08
2018-02-11T10:59:02.297Z,994.06
2018-02-11T11:00:01.926Z,994.09
2018-02-11T11:01:02.116Z,994.04
2018-02-11T11:02:01.882Z,993.93
2018-02-11T11:03:01.940Z,993.97
2018-02-11T11:04:01.877Z,993.94
2018-02-11T11:05:01.887Z,993.99
2018-02-11T11:06:01.846Z,993.92
2018-02-11T11:07:10.698Z,993.95
2018-02-11T11:08:55.471Z,994.00
2018-02-11T11:09:55.265Z,993.97
2018-02-11T11:10:55.222Z,993.93
2018-02-11T11:11:55.195Z,993.87
2018-02-11T11:12:55.196Z,993.84
2018-02-11T11:13:55.363Z,993.87
2018-02-11T11:14:55.177Z,993.80
2018-02-11T11:15:55.161Z,993.81
2018-02-11T11:16:55.173Z,993.81
2018-02-11T11:17:55.146Z,993.82
2018-02-11T11:18:55.134Z,993.81
2018-02-11T11:19:55.154Z,993.79
2018-02-11T11:20:55.126Z,993.72
2018-02-11T11:21:55.113Z,993.79
2018-02-11T11:22:55.145Z,993.79
2018-02-11T11:23:55.095Z,993.75
2018-02-11T11:24:55.087Z,993.76
2018-02-11T11:25:55.079Z,993.77
2018-02-11T11:26:55.073Z,993.83
2018-02-11T11:27:55.063Z,993.65
2018-02-11T11:28:55.054Z,993.80
2018-02-11T11:29:55.046Z,993.80
2018-02-11T11:30:55.035Z,993.86
2018-02-11T11:31:55.028Z,993.76
2018-02-11T11:32:55.021Z,993.83
2018-02-11T11:33:55.013Z,993.81
2018-02-11T11:34:55.007Z,993.76
2018-02-11T11:35:54.995Z,993.84
2018-02-11T11:36:54.986Z,993.81
2018-02-11T11:37:54.979Z,993.84
2018-02-11T11:38:54.970Z,993.80
2018-02-11T11:39:54.981Z,993.85
2018-02-11T11:40:54.963Z,993.83
2018-02-11T11:41:54.957Z,993.84
2018-02-11T11:42:54.937Z,993.91
2018-02-11T11:43:54.951Z,993.79
2018-02-11T11:44:54.924Z,993.89
2018-02-11T11:45:54.916Z,993.98
2018-02-11T11:46:54.905Z,993.92
2018-02-11T11:47:54.898Z,993.97
2018-02-11T11:48:54.902Z,993.90
2018-02-11T11:49:54.886Z,993.95
2018-02-11T11:50:54.873Z,993.90
2018-02-11T11:51:54.874Z,993.82
2018-02-11T11:52:54.860Z,993.89
2018-02-11T11:53:54.859Z,993.85
2018-02-11T11:54:54.843Z,993.85
2018-02-11T11:55:54.834Z,993.87
2018-02-11T11:56:54.825Z,993.85
2018-02-11T11:57:54.821Z,993.76
2018-02-11T11:58:54.811Z,993.78
2018-02-11T11:59:54.804Z,993.73
2018-02-11T12:00:54.798Z,993.71
2018-02-11T12:01:54.792Z,993.66
2018-02-11T12:02:54.780Z,993.66
2018-02-11T12:03:54.772Z,993.65
2018-02-11T12:04:54.763Z,993.64
2018-02-11T12:05:54.759Z,993.62
2018-02-11T12:06:54.746Z,993.60
2018-02-11T12:07:54.740Z,993.56
2018-02-11T12:08:54.731Z,993.57
2018-02-11T12:10:03.549Z,993.50
2018-02-11T12:11:48.158Z,993.63
2018-02-11T12:12:48.180Z,993.60
2018-02-11T12:13:48.109Z,993.67
2018-02-11T12:14:48.085Z,993.68
2018-02-11T12:15:48.086Z,993.69
2018-02-11T12:16:48.081Z,993.67
2018-02-11T12:17:48.155Z,993.45
2018-02-11T12:18:48.274Z,993.64
2018-02-11T12:19:48.045Z,993.55
2018-02-11T12:20:48.087Z,993.60
2018-02-11T12:21:48.047Z,993.49
2018-02-11T12:22:48.026Z,993.61
2018-02-11T12:23:48.016Z,993.50
2018-02-11T12:24:48.011Z,993.42
2018-02-11T12:25:48.002Z,993.57
2018-02-11T12:26:48.011Z,993.49
2018-02-11T12:27:47.989Z,993.53
2018-02-11T12:28:47.981Z,993.56
2018-02-11T12:29:47.972Z,993.60
2018-02-11T12:30:47.963Z,993.58
2018-02-11T12:31:47.956Z,993.62
2018-02-11T12:32:47.951Z,993.63
2018-02-11T12:33:47.941Z,993.58
2018-02-11T12:34:47.934Z,993.52
2018-02-11T12:35:47.930Z,993.55
2018-02-11T12:36:47.922Z,993.52
2018-02-11T12:37:47.915Z,993.60
2018-02-11T12:38:47.905Z,993.57
2018-02-11T12:39:47.902Z,993.64
2018-02-11T12:40:47.891Z,993.63
2018-02-11T12:41:47.888Z,993.66
2018-02-11T12:42:47.934Z,993.57
2018-02-11T12:43:47.869Z,993.60
2018-02-11T12:44:47.863Z,993.62
2018-02-11T12:45:47.881Z,993.60
2018-02-11T12:46:47.854Z,993.62
2018-02-11T12:47:47.846Z,993.62
2018-02-11T12:48:47.832Z,993.53
2018-02-11T12:49:47.824Z,993.58
2018-02-11T12:50:47.823Z,993.53
2018-02-11T12:51:47.819Z,993.61
2018-02-11T12:52:47.812Z,993.55
2018-02-11T12:53:47.799Z,993.52
2018-02-11T12:54:47.820Z,993.54
2018-02-11T12:55:47.789Z,993.43
2018-02-11T12:56:47.782Z,993.52
2018-02-11T12:57:47.766Z,993.49
2018-02-11T12:58:47.758Z,993.53
2018-02-11T12:59:47.752Z,993.50
2018-02-11T13:00:47.765Z,993.49
2018-02-11T13:01:47.747Z,993.50
2018-02-11T13:02:47.732Z,993.52